createdAt,value
2019-06-20T00:00:36.959Z,989.96
2019-06-20T00:01:36.981Z,989.97
2019-06-20T00:02:36.916Z,989.99
2019-06-20T00:03:36.903Z,989.97
2019-06-20T00:04:36.894Z,989.99
2019-06-20T00:05:36.880Z,989.98
2019-06-20T00:06:36.883Z,990.00
2019-06-20T00:07:36.920Z,990.00
2019-06-20T00:08:36.845Z,990.09
2019-06-20T00:09:36.839Z,990.07
2019-06-20T00:10:36.825Z,990.07
2019-06-20T00:11:36.812Z,990.06
2019-06-20T00:12:36.819Z,990.06
2019-06-20T00:13:36.854Z,990.06
2019-06-20T00:14:36.778Z,990.05
2019-06-20T00:15:36.764Z,990.02
2019-06-20T00:16:36.754Z,989.98
2019-06-20T00:17:36.745Z,990.01
2019-06-20T00:18:36.747Z,989.99
2019-06-20T00:19:36.886Z,990.01
2019-06-20T00:20:36.707Z,990.05
2019-06-20T00:21:36.697Z,990.05
2019-06-20T00:22:36.716Z,990.03
2019-06-20T00:23:36.682Z,990.07
2019-06-20T00:24:36.693Z,990.09
2019-06-20T00:25:36.711Z,990.09
2019-06-20T00:26:36.640Z,990.08
2019-06-20T00:27:36.628Z,990.05
2019-06-20T00:28:36.616Z,989.99
2019-06-20T00:29:36.607Z,990.01
2019-06-20T00:30:36.651Z,990.02
2019-06-20T00:31:36.655Z,990.04
2019-06-20T00:32:36.576Z,990.04
2019-06-20T00:33:36.563Z,990.02
2019-06-20T00:34:36.558Z,990.04
2019-06-20T00:35:36.541Z,990.07
2019-06-20T00:36:36.546Z,990.04
2019-06-20T00:37:36.580Z,990.07
2019-06-20T00:38:36.506Z,990.06
2019-06-20T00:39:36.492Z,990.09
2019-06-20T00:40:36.482Z,990.10
2019-06-20T00:41:36.474Z,990.13
2019-06-20T00:42:36.474Z,990.17
2019-06-20T00:43:36.512Z,990.17
2019-06-20T00:44:36.441Z,990.17
2019-06-20T00:45:36.427Z,990.19
2019-06-20T00:46:36.415Z,990.21
2019-06-20T00:47:36.402Z,990.27
2019-06-20T00:48:36.407Z,990.27
2019-06-20T00:49:36.443Z,990.28
2019-06-20T00:50:36.369Z,990.30
2019-06-20T00:51:36.357Z,990.32
2019-06-20T00:52:36.347Z,990.31
2019-06-20T00:53:36.342Z,990.33
2019-06-20T00:54:36.342Z,990.28
2019-06-20T00:55:36.367Z,990.36
2019-06-20T00:56:36.297Z,990.35
2019-06-20T00:57:36.287Z,990.32
2019-06-20T00:58:36.277Z,990.33
2019-06-20T00:59:36.266Z,990.32
2019-06-20T01:00:36.256Z,990.30
2019-06-20T01:01:36.304Z,990.29
2019-06-20T01:02:36.229Z,990.29
2019-06-20T01:03:36.260Z,990.32
2019-06-20T01:04:36.211Z,990.30
2019-06-20T01:05:36.205Z,990.37
2019-06-20T01:06:36.205Z,990.34
2019-06-20T01:07:36.337Z,990.34
2019-06-20T01:08:36.159Z,990.36
2019-06-20T01:09:36.149Z,990.38
2019-06-20T01:10:36.161Z,990.33
2019-06-20T01:11:36.128Z,990.31
2019-06-20T01:12:36.127Z,990.34
2019-06-20T01:13:36.156Z,990.36
2019-06-20T01:14:36.092Z,990.35
2019-06-20T01:15:36.085Z,990.37
2019-06-20T01:16:36.072Z,990.39
2019-06-20T01:17:36.060Z,990.43
2019-06-20T01:18:36.078Z,990.41
2019-06-20T01:19:36.206Z,990.42
2019-06-20T01:20:36.041Z,990.42
2019-06-20T01:21:36.014Z,990.45
2019-06-20T01:22:36.003Z,990.48
2019-06-20T01:23:35.990Z,990.45
2019-06-20T01:24:35.996Z,990.43
2019-06-20T01:25:36.118Z,990.45
2019-06-20T01:26:35.956Z,990.47
2019-06-20T01:27:35.982Z,990.42
2019-06-20T01:28:35.937Z,990.50
2019-06-20T01:29:35.928Z,990.51
2019-06-20T01:30:35.926Z,990.58
2019-06-20T01:31:35.976Z,990.58
2019-06-20T01:32:35.892Z,990.61
2019-06-20T01:33:35.884Z,990.63
2019-06-20T01:34:35.871Z,990.65
2019-06-20T01:35:35.871Z,990.67
2019-06-20T01:36:35.841Z,990.71
2019-06-20T01:37:35.888Z,990.73
2019-06-20T01:38:35.815Z,990.74
2019-06-20T01:39:35.810Z,990.75
2019-06-20T01:40:35.790Z,990.76
2019-06-20T01:41:35.778Z,990.78
2019-06-20T01:42:35.768Z,990.78
2019-06-20T01:43:49.612Z,990.78
2019-06-20T01:44:36.742Z,990.77
2019-06-20T01:45:35.738Z,990.74
2019-06-20T01:46:35.738Z,990.76
2019-06-20T01:47:35.715Z,990.75
2019-06-20T01:48:35.699Z,990.76
2019-06-20T01:49:35.764Z,990.76
2019-06-20T01:50:35.679Z,990.79
2019-06-20T01:51:35.666Z,990.81
2019-06-20T01:52:35.669Z,990.84
2019-06-20T01:53:35.649Z,990.85
2019-06-20T01:54:35.640Z,990.88
2019-06-20T01:55:35.712Z,990.82
2019-06-20T01:56:35.618Z,990.85
2019-06-20T01:57:35.611Z,990.82
2019-06-20T01:58:35.593Z,990.79
2019-06-20T01:59:35.661Z,990.76
2019-06-20T02:00:35.568Z,990.74
2019-06-20T02:01:35.624Z,990.78
2019-06-20T02:02:35.545Z,990.80
2019-06-20T02:03:35.535Z,990.79
2019-06-20T02:04:35.522Z,990.79
2019-06-20T02:05:35.525Z,990.84
2019-06-20T02:06:35.498Z,990.85
2019-06-20T02:07:35.577Z,990.84
2019-06-20T02:08:35.479Z,990.86
2019-06-20T02:09:35.463Z,990.83
2019-06-20T02:10:35.455Z,990.87
2019-06-20T02:11:35.446Z,990.80
2019-06-20T02:12:35.432Z,990.81
2019-06-20T02:13:35.478Z,990.80
2019-06-20T02:14:35.406Z,990.80
2019-06-20T02:15:35.399Z,990.80
2019-06-20T02:16:35.385Z,990.80
2019-06-20T02:17:35.382Z,990.84
2019-06-20T02:18:35.395Z,990.82
2019-06-20T02:19:35.414Z,990.84
2019-06-20T02:20:35.343Z,990.82
2019-06-20T02:21:35.330Z,990.81
2019-06-20T02:22:35.317Z,990.86
2019-06-20T02:23:35.309Z,990.87
2019-06-20T02:24:35.297Z,990.85
2019-06-20T02:25:35.329Z,990.88
2019-06-20T02:26:35.272Z,990.88
2019-06-20T02:27:35.258Z,990.88
2019-06-20T02:28:35.257Z,990.91
2019-06-20T02:29:35.238Z,990.92
2019-06-20T02:30:35.230Z,990.99
2019-06-20T02:31:35.258Z,990.99
2019-06-20T02:32:35.234Z,991.00
2019-06-20T02:33:35.190Z,991.08
2019-06-20T02:34:35.187Z,991.03
2019-06-20T02:35:35.178Z,991.01
2019-06-20T02:36:35.165Z,990.98
2019-06-20T02:37:35.200Z,991.01
2019-06-20T02:38:35.152Z,991.02
2019-06-20T02:39:35.141Z,990.97
2019-06-20T02:40:35.113Z,991.01
2019-06-20T02:41:35.102Z,991.02
2019-06-20T02:42:35.096Z,991.00
2019-06-20T02:43:35.129Z,991.02
2019-06-20T02:44:35.078Z,991.02
2019-06-20T02:45:35.078Z,991.01
2019-06-20T02:46:35.049Z,991.06
2019-06-20T02:47:35.036Z,991.10
2019-06-20T02:48:35.025Z,991.10
2019-06-20T02:49:35.051Z,991.08
2019-06-20T02:50:35.013Z,991.14
2019-06-20T02:51:35.011Z,991.07
2019-06-20T02:52:34.979Z,991.08
2019-06-20T02:53:34.968Z,991.15
2019-06-20T02:54:34.960Z,991.15
2019-06-20T02:55:34.981Z,991.11
2019-06-20T02:56:34.934Z,991.16
2019-06-20T02:57:34.940Z,991.16
2019-06-20T02:58:34.913Z,991.16
2019-06-20T02:59:34.905Z,991.14
2019-06-20T03:00:34.892Z,991.19
2019-06-20T03:01:34.921Z,991.21
2019-06-20T03:02:34.872Z,991.25
2019-06-20T03:03:34.872Z,991.28
2019-06-20T03:04:34.847Z,991.29
2019-06-20T03:05:34.835Z,991.30
2019-06-20T03:06:34.827Z,991.30
2019-06-20T03:07:34.852Z,991.31
2019-06-20T03:08:34.806Z,991.34
2019-06-20T03:09:34.808Z,991.35
2019-06-20T03:10:34.780Z,991.38
2019-06-20T03:11:34.768Z,991.39
2019-06-20T03:12:34.760Z,991.41
2019-06-20T03:13:34.784Z,991.41
2019-06-20T03:14:44.978Z,991.43
2019-06-20T03:15:35.729Z,991.46
2019-06-20T03:16:34.714Z,991.45
2019-06-20T03:17:34.699Z,991.43
2019-06-20T03:18:34.704Z,991.45
2019-06-20T03:19:34.732Z,991.41
2019-06-20T03:20:34.666Z,991.47
2019-06-20T03:21:34.676Z,991.47
2019-06-20T03:22:34.644Z,991.47
2019-06-20T03:23:34.631Z,991.47
2019-06-20T03:24:34.621Z,991.49
2019-06-20T03:25:34.645Z,991.51
2019-06-20T03:26:34.597Z,991.52
2019-06-20T03:27:34.610Z,991.50
2019-06-20T03:28:34.574Z,991.52
2019-06-20T03:29:34.567Z,991.52
2019-06-20T03:30:34.561Z,991.52
2019-06-20T03:31:34.589Z,991.50
2019-06-20T03:32:34.531Z,991.54
2019-06-20T03:33:34.548Z,991.54
2019-06-20T03:34:34.506Z,991.58
2019-06-20T03:35:34.501Z,991.58
2019-06-20T03:36:34.486Z,991.51
2019-06-20T03:37:34.512Z,991.58
2019-06-20T03:38:34.463Z,991.60
2019-06-20T03:39:34.465Z,991.56
2019-06-20T03:40:34.438Z,991.55
2019-06-20T03:41:34.430Z,991.58
2019-06-20T03:42:34.420Z,991.55
2019-06-20T03:43:34.439Z,991.59
2019-06-20T03:44:34.392Z,991.60
2019-06-20T03:45:34.391Z,991.61
2019-06-20T03:46:34.369Z,991.59
2019-06-20T03:47:34.359Z,991.58
2019-06-20T03:48:34.346Z,991.59
2019-06-20T03:49:34.374Z,991.58
2019-06-20T03:50:34.321Z,991.61
2019-06-20T03:51:34.316Z,991.60
2019-06-20T03:52:34.299Z,991.55
2019-06-20T03:53:34.287Z,991.57
2019-06-20T03:54:34.281Z,991.56
2019-06-20T03:55:34.303Z,991.53
2019-06-20T03:56:34.256Z,991.58
2019-06-20T03:57:34.266Z,991.60
2019-06-20T03:58:34.233Z,991.60
2019-06-20T03:59:34.227Z,991.61
2019-06-20T04:00:34.209Z,991.63
2019-06-20T04:01:34.235Z,991.63
2019-06-20T04:02:34.193Z,991.66
2019-06-20T04:03:34.193Z,991.62
2019-06-20T04:04:34.170Z,991.68
2019-06-20T04:05:34.148Z,991.68
2019-06-20T04:06:34.149Z,991.71
2019-06-20T04:07:34.174Z,991.68
2019-06-20T04:08:34.119Z,991.75
2019-06-20T04:09:34.129Z,991.75
2019-06-20T04:10:34.092Z,991.80
2019-06-20T04:11:34.086Z,991.75
2019-06-20T04:12:34.070Z,991.73
2019-06-20T04:13:34.098Z,991.77
2019-06-20T04:14:34.118Z,991.83
2019-06-20T04:15:34.053Z,991.81
2019-06-20T04:16:34.030Z,991.83
2019-06-20T04:17:34.011Z,991.80
2019-06-20T04:18:34.004Z,991.80
2019-06-20T04:19:34.046Z,991.81
2019-06-20T04:20:34.012Z,991.75
2019-06-20T04:21:33.984Z,991.74
2019-06-20T04:22:33.954Z,991.77
2019-06-20T04:23:33.950Z,991.78
2019-06-20T04:24:33.933Z,991.79
2019-06-20T04:25:33.968Z,991.78
2019-06-20T04:26:33.912Z,991.81
2019-06-20T04:27:33.920Z,991.80
2019-06-20T04:28:33.891Z,991.84
2019-06-20T04:29:36.009Z,991.84
2019-06-20T04:30:33.870Z,991.90
2019-06-20T04:31:33.893Z,991.86
2019-06-20T04:32:33.840Z,991.90
2019-06-20T04:33:33.845Z,991.90
2019-06-20T04:34:33.817Z,991.91
2019-06-20T04:35:33.812Z,991.86
2019-06-20T04:36:33.797Z,991.88
2019-06-20T04:37:33.819Z,991.91
2019-06-20T04:38:33.770Z,991.93
2019-06-20T04:39:33.772Z,991.91
2019-06-20T04:40:33.789Z,991.85
2019-06-20T04:41:33.735Z,991.84
2019-06-20T04:42:33.730Z,991.83
2019-06-20T04:43:33.765Z,991.83
2019-06-20T04:44:33.720Z,991.82
2019-06-20T04:45:35.529Z,991.83
2019-06-20T04:46:33.701Z,991.85
2019-06-20T04:47:33.679Z,991.87
2019-06-20T04:48:33.663Z,991.87
2019-06-20T04:49:33.689Z,991.86
2019-06-20T04:50:33.671Z,991.91
2019-06-20T04:51:33.627Z,991.95
2019-06-20T04:52:33.634Z,991.97
2019-06-20T04:53:33.603Z,991.98
2019-06-20T04:54:33.592Z,992.06
2019-06-20T04:55:33.623Z,992.05
2019-06-20T04:56:33.570Z,992.09
2019-06-20T04:57:33.564Z,992.11
2019-06-20T04:58:33.564Z,992.08
2019-06-20T04:59:33.546Z,992.16
2019-06-20T05:00:33.528Z,992.12
2019-06-20T05:01:33.556Z,992.14
2019-06-20T05:02:33.503Z,992.17
2019-06-20T05:03:33.520Z,992.15
2019-06-20T05:04:33.493Z,992.18
2019-06-20T05:05:33.479Z,992.20
2019-06-20T05:06:33.461Z,992.18
2019-06-20T05:07:33.483Z,992.18
2019-06-20T05:08:33.489Z,992.17
2019-06-20T05:09:33.426Z,992.18
2019-06-20T05:10:33.427Z,992.15
2019-06-20T05:11:33.405Z,992.15
2019-06-20T05:12:33.407Z,992.21
2019-06-20T05:13:33.423Z,992.22
2019-06-20T05:14:33.371Z,992.23
2019-06-20T05:15:33.360Z,992.22
2019-06-20T05:16:33.415Z,992.24
2019-06-20T05:17:33.338Z,992.25
2019-06-20T05:18:33.327Z,992.26
2019-06-20T05:19:33.368Z,992.30
2019-06-20T05:20:33.304Z,992.25
2019-06-20T05:21:33.296Z,992.28
2019-06-20T05:22:33.294Z,992.26
2019-06-20T05:23:33.272Z,992.24
2019-06-20T05:24:33.261Z,992.27
2019-06-20T05:25:33.307Z,992.33
2019-06-20T05:26:33.244Z,992.30
2019-06-20T05:27:33.228Z,992.30
2019-06-20T05:28:33.357Z,992.34
2019-06-20T05:29:33.208Z,992.37
2019-06-20T05:30:33.194Z,992.40
2019-06-20T05:31:33.224Z,992.36
2019-06-20T05:32:33.171Z,992.44
2019-06-20T05:33:33.165Z,992.42
2019-06-20T05:34:33.174Z,992.46
2019-06-20T05:35:33.151Z,992.47
2019-06-20T05:36:33.128Z,992.43
2019-06-20T05:37:33.153Z,992.36
2019-06-20T05:38:33.108Z,992.41
2019-06-20T05:39:33.098Z,992.44
2019-06-20T05:40:37.032Z,992.45
2019-06-20T05:41:33.076Z,992.44
2019-06-20T05:42:33.063Z,992.47
2019-06-20T05:43:33.087Z,992.49
2019-06-20T05:44:33.048Z,992.50
2019-06-20T05:45:33.028Z,992.48
2019-06-20T05:46:33.139Z,992.48
2019-06-20T05:47:33.013Z,992.50
2019-06-20T05:48:33.001Z,992.52
2019-06-20T05:49:33.022Z,992.49
2019-06-20T05:50:32.976Z,992.54
2019-06-20T05:51:32.961Z,992.53
2019-06-20T05:52:32.958Z,992.54
2019-06-20T05:53:32.939Z,992.56
2019-06-20T05:54:32.936Z,992.51
2019-06-20T05:55:33.024Z,992.48
2019-06-20T05:56:32.909Z,992.52
2019-06-20T05:57:32.927Z,992.52
2019-06-20T05:58:32.994Z,992.47
2019-06-20T05:59:32.868Z,992.51
2019-06-20T06:00:32.873Z,992.50
2019-06-20T06:01:32.885Z,992.51
2019-06-20T06:02:32.835Z,992.47
2019-06-20T06:03:33.589Z,992.50
2019-06-20T06:04:32.813Z,992.52
2019-06-20T06:05:32.802Z,992.53
2019-06-20T06:06:32.793Z,992.53
2019-06-20T06:07:32.816Z,992.53
2019-06-20T06:08:32.782Z,992.55
2019-06-20T06:09:32.766Z,992.55
2019-06-20T06:10:32.745Z,992.54
2019-06-20T06:11:32.735Z,992.59
2019-06-20T06:12:32.724Z,992.59
2019-06-20T06:13:32.747Z,992.61
2019-06-20T06:14:32.735Z,992.66
2019-06-20T06:15:32.689Z,992.72
2019-06-20T06:16:32.679Z,992.74
2019-06-20T06:17:32.668Z,992.74
2019-06-20T06:18:32.654Z,992.71
2019-06-20T06:19:32.684Z,992.75
2019-06-20T06:20:32.644Z,992.74
2019-06-20T06:21:32.623Z,992.64
2019-06-20T06:22:32.615Z,992.66
2019-06-20T06:23:32.601Z,992.70
2019-06-20T06:24:32.593Z,992.67
2019-06-20T06:25:32.624Z,992.67
2019-06-20T06:26:32.586Z,992.70
2019-06-20T06:27:32.568Z,992.73
2019-06-20T06:28:32.543Z,992.69
2019-06-20T06:29:32.533Z,992.76
2019-06-20T06:30:32.522Z,992.69
2019-06-20T06:31:32.568Z,992.70
2019-06-20T06:32:39.957Z,992.70
2019-06-20T06:33:33.508Z,992.71
2019-06-20T06:34:32.478Z,992.70
2019-06-20T06:35:32.468Z,992.66
2019-06-20T06:36:32.456Z,992.67
2019-06-20T06:37:32.484Z,992.66
2019-06-20T06:38:32.439Z,992.68
2019-06-20T06:39:32.425Z,992.74
2019-06-20T06:40:32.422Z,992.69
2019-06-20T06:41:32.451Z,992.71
2019-06-20T06:42:32.402Z,992.68
2019-06-20T06:43:32.413Z,992.74
2019-06-20T06:44:32.382Z,992.68
2019-06-20T06:45:32.368Z,992.72
2019-06-20T06:46:44.046Z,992.71
2019-06-20T06:47:33.347Z,992.71
2019-06-20T06:48:32.319Z,992.76
2019-06-20T06:49:32.347Z,992.75
2019-06-20T06:50:32.299Z,992.69
2019-06-20T06:51:32.323Z,992.77
2019-06-20T06:52:32.312Z,992.71
2019-06-20T06:53:32.267Z,992.67
2019-06-20T06:54:32.254Z,992.75
2019-06-20T06:55:32.302Z,992.73
2019-06-20T06:56:32.244Z,992.76
2019-06-20T06:57:32.229Z,992.72
2019-06-20T06:58:32.217Z,992.77
2019-06-20T06:59:32.204Z,992.69
2019-06-20T07:00:32.281Z,992.68
2019-06-20T07:01:32.216Z,992.72
2019-06-20T07:02:32.171Z,992.74
2019-06-20T07:03:32.158Z,992.73
2019-06-20T07:04:32.220Z,992.69
2019-06-20T07:05:32.133Z,992.71
2019-06-20T07:06:32.138Z,992.73
2019-06-20T07:07:32.148Z,992.72
2019-06-20T07:08:32.103Z,992.78
2019-06-20T07:09:35.351Z,992.84
2019-06-20T07:10:32.087Z,992.80
2019-06-20T07:11:32.085Z,992.80
2019-06-20T07:12:32.055Z,992.75
2019-06-20T07:13:32.082Z,992.77
2019-06-20T07:14:32.036Z,992.71
2019-06-20T07:15:32.025Z,992.77
2019-06-20T07:16:32.017Z,992.74
2019-06-20T07:17:32.012Z,992.73
2019-06-20T07:18:32.035Z,992.73
2019-06-20T07:19:32.020Z,992.71
2019-06-20T07:20:31.968Z,992.75
2019-06-20T07:21:31.956Z,992.72
2019-06-20T07:22:31.951Z,992.72
2019-06-20T07:23:31.937Z,992.75
2019-06-20T07:24:31.937Z,992.74
2019-06-20T07:25:31.981Z,992.73
2019-06-20T07:26:31.903Z,992.70
2019-06-20T07:27:31.900Z,992.70
2019-06-20T07:28:31.886Z,992.73
2019-06-20T07:29:31.876Z,992.74
2019-06-20T07:30:31.876Z,992.71
2019-06-20T07:31:31.971Z,992.74
2019-06-20T07:32:31.876Z,992.71
2019-06-20T07:33:31.832Z,992.74
2019-06-20T07:34:31.820Z,992.86
2019-06-20T07:35:31.811Z,992.74
2019-06-20T07:36:31.800Z,992.74
2019-06-20T07:37:31.838Z,992.72
2019-06-20T07:38:31.795Z,992.74
2019-06-20T07:39:31.829Z,992.77
2019-06-20T07:40:31.753Z,992.74
2019-06-20T07:41:31.753Z,992.73
2019-06-20T07:42:31.828Z,992.73
2019-06-20T07:43:31.775Z,992.75
2019-06-20T07:44:31.717Z,992.74
2019-06-20T07:45:31.747Z,992.74
2019-06-20T07:46:31.734Z,992.73
2019-06-20T07:47:31.691Z,992.70
2019-06-20T07:48:31.676Z,992.72
2019-06-20T07:49:31.705Z,992.67
2019-06-20T07:50:31.697Z,992.77
2019-06-20T07:51:31.633Z,992.68
2019-06-20T07:52:31.640Z,992.74
2019-06-20T07:53:31.616Z,992.74
2019-06-20T07:54:31.631Z,992.74
2019-06-20T07:55:31.647Z,992.77
2019-06-20T07:56:31.592Z,992.73
2019-06-20T07:57:31.576Z,992.76
2019-06-20T07:58:31.826Z,992.75
2019-06-20T07:59:31.565Z,992.77
2019-06-20T08:00:31.549Z,992.81
2019-06-20T08:01:31.685Z,992.76
2019-06-20T08:02:31.520Z,992.77
2019-06-20T08:03:31.511Z,992.73
2019-06-20T08:04:31.557Z,992.76
2019-06-20T08:05:31.486Z,992.74
2019-06-20T08:06:31.551Z,992.73
2019-06-20T08:07:31.514Z,992.74
2019-06-20T08:08:31.517Z,992.78
2019-06-20T08:09:44.386Z,992.76
2019-06-20T08:10:32.428Z,992.74
2019-06-20T08:11:31.438Z,992.75
2019-06-20T08:12:31.438Z,992.77
2019-06-20T08:13:31.438Z,992.75
2019-06-20T08:14:31.406Z,992.75
2019-06-20T08:15:31.386Z,992.79
2019-06-20T08:16:31.369Z,992.73
2019-06-20T08:17:35.184Z,992.73
2019-06-20T08:18:31.363Z,992.70
2019-06-20T08:19:31.383Z,992.74
2019-06-20T08:20:31.332Z,992.75
2019-06-20T08:21:31.362Z,992.75
2019-06-20T08:22:31.303Z,992.75
2019-06-20T08:23:31.292Z,992.67
2019-06-20T08:24:31.284Z,992.71
2019-06-20T08:25:31.351Z,992.76
2019-06-20T08:26:31.280Z,992.76
2019-06-20T08:27:31.250Z,992.80
2019-06-20T08:28:31.269Z,992.83
2019-06-20T08:29:31.231Z,992.82
2019-06-20T08:30:31.230Z,992.82
2019-06-20T08:31:31.256Z,992.87
2019-06-20T08:32:31.439Z,992.82
2019-06-20T08:33:31.176Z,992.86
2019-06-20T08:34:31.255Z,992.89
2019-06-20T08:35:31.176Z,992.89
2019-06-20T08:36:31.144Z,992.87
2019-06-20T08:37:31.164Z,992.86
2019-06-20T08:38:31.177Z,992.84
2019-06-20T08:39:31.153Z,992.86
2019-06-20T08:40:31.147Z,992.85
2019-06-20T08:41:31.104Z,992.87
2019-06-20T08:42:31.116Z,992.90
2019-06-20T08:43:31.160Z,992.88
2019-06-20T08:44:31.049Z,992.86
2019-06-20T08:45:31.045Z,992.87
2019-06-20T08:46:31.074Z,992.86
2019-06-20T08:47:31.036Z,992.84
2019-06-20T08:48:31.011Z,992.80
2019-06-20T08:49:31.099Z,992.78
2019-06-20T08:50:30.993Z,992.82
2019-06-20T08:51:30.985Z,992.76
2019-06-20T08:52:30.966Z,992.77
2019-06-20T08:53:30.970Z,992.73
2019-06-20T08:54:30.954Z,992.81
2019-06-20T08:55:31.008Z,992.78
2019-06-20T08:56:30.938Z,992.76
2019-06-20T08:57:30.907Z,992.75
2019-06-20T08:58:30.899Z,992.76
2019-06-20T08:59:30.912Z,992.75
2019-06-20T09:00:30.921Z,992.72
2019-06-20T09:01:30.928Z,992.75
2019-06-20T09:02:30.928Z,992.73
2019-06-20T09:03:30.842Z,992.80
2019-06-20T09:04:30.828Z,992.77
2019-06-20T09:05:31.235Z,992.80
2019-06-20T09:06:30.823Z,992.83
2019-06-20T09:07:30.843Z,992.74
2019-06-20T09:08:30.859Z,992.77
2019-06-20T09:09:30.795Z,992.79
2019-06-20T09:10:30.764Z,992.75
2019-06-20T09:11:30.748Z,992.73
2019-06-20T09:12:30.756Z,992.76
2019-06-20T09:13:30.774Z,992.75
2019-06-20T09:14:30.823Z,992.76
2019-06-20T09:15:30.756Z,992.78
2019-06-20T09:16:30.708Z,992.76
2019-06-20T09:17:30.686Z,992.78
2019-06-20T09:18:30.671Z,992.82
2019-06-20T09:19:30.705Z,992.80
2019-06-20T09:20:30.644Z,992.87
2019-06-20T09:21:30.640Z,992.84
2019-06-20T09:22:30.648Z,992.81
2019-06-20T09:23:30.617Z,992.81
2019-06-20T09:24:30.608Z,992.78
2019-06-20T09:25:30.644Z,992.83
2019-06-20T09:26:30.578Z,992.80
2019-06-20T09:27:30.627Z,992.83
2019-06-20T09:28:30.556Z,992.85
2019-06-20T09:29:41.432Z,992.84
2019-06-20T09:30:31.615Z,992.81
2019-06-20T09:31:30.527Z,992.86
2019-06-20T09:32:30.527Z,992.86
2019-06-20T09:33:30.555Z,992.89
2019-06-20T09:34:30.499Z,992.86
2019-06-20T09:35:30.492Z,992.92
2019-06-20T09:36:30.506Z,992.93
2019-06-20T09:37:30.567Z,992.89
2019-06-20T09:38:30.466Z,992.95
2019-06-20T09:39:30.442Z,992.97
2019-06-20T09:40:30.419Z,992.96
2019-06-20T09:41:30.409Z,992.96
2019-06-20T09:42:30.452Z,992.91
2019-06-20T09:43:30.394Z,992.97
2019-06-20T09:44:30.377Z,992.89
2019-06-20T09:45:30.368Z,992.91
2019-06-20T09:46:30.365Z,992.89
2019-06-20T09:47:30.443Z,992.95
2019-06-20T09:48:30.401Z,992.92
2019-06-20T09:49:30.344Z,992.91
2019-06-20T09:50:30.323Z,992.89
2019-06-20T09:51:30.373Z,992.88
2019-06-20T09:52:30.308Z,992.96
2019-06-20T09:53:30.281Z,992.90
2019-06-20T09:54:30.312Z,992.88
2019-06-20T09:55:30.347Z,992.83
2019-06-20T09:56:30.368Z,992.87
2019-06-20T09:57:30.244Z,992.89
2019-06-20T09:58:30.249Z,992.90
2019-06-20T09:59:30.242Z,992.88
2019-06-20T10:00:30.257Z,992.84
2019-06-20T10:01:30.200Z,992.85
2019-06-20T10:02:30.277Z,992.78
2019-06-20T10:03:30.172Z,992.80
2019-06-20T10:04:30.159Z,992.81
2019-06-20T10:05:30.169Z,992.84
2019-06-20T10:06:30.179Z,992.84
2019-06-20T10:07:30.131Z,992.84
2019-06-20T10:08:30.125Z,992.81
2019-06-20T10:09:30.107Z,992.80
2019-06-20T10:10:30.102Z,992.80
2019-06-20T10:11:30.123Z,992.80
2019-06-20T10:12:30.166Z,992.81
2019-06-20T10:13:32.643Z,992.78
2019-06-20T10:14:30.093Z,992.79
2019-06-20T10:15:30.152Z,992.79
2019-06-20T10:16:44.974Z,992.73
2019-06-20T10:17:31.095Z,992.76
2019-06-20T10:18:30.057Z,992.73
2019-06-20T10:19:30.006Z,992.69
2019-06-20T10:20:29.988Z,992.76
2019-06-20T10:21:29.978Z,992.79
2019-06-20T10:22:29.994Z,992.77
2019-06-20T10:23:29.999Z,992.78
2019-06-20T10:24:29.978Z,992.77
2019-06-20T10:25:29.965Z,992.77
2019-06-20T10:26:29.932Z,992.75
2019-06-20T10:27:29.934Z,992.74
2019-06-20T10:28:29.917Z,992.72
2019-06-20T10:29:29.977Z,992.73
2019-06-20T10:30:29.922Z,992.76
2019-06-20T10:31:29.878Z,992.74
2019-06-20T10:32:29.868Z,992.79
2019-06-20T10:33:29.865Z,992.83
2019-06-20T10:34:31.205Z,992.78
2019-06-20T10:35:29.962Z,992.84
2019-06-20T10:36:29.831Z,992.86
2019-06-20T10:37:29.804Z,992.82
2019-06-20T10:38:29.795Z,992.72
2019-06-20T10:39:29.799Z,992.82
2019-06-20T10:40:29.810Z,992.85
2019-06-20T10:41:29.809Z,992.87
2019-06-20T10:42:29.758Z,992.85
2019-06-20T10:43:29.760Z,992.80
2019-06-20T10:44:29.729Z,992.81
2019-06-20T10:45:29.722Z,992.80
2019-06-20T10:46:29.717Z,992.75
2019-06-20T10:47:35.054Z,992.84
2019-06-20T10:48:30.710Z,992.86
2019-06-20T10:49:29.679Z,992.82
2019-06-20T10:50:29.682Z,992.85
2019-06-20T10:51:29.656Z,992.87
2019-06-20T10:52:29.646Z,992.90
2019-06-20T10:53:29.764Z,992.93
2019-06-20T10:54:29.629Z,992.87
2019-06-20T10:55:29.742Z,992.90
2019-06-20T10:56:29.609Z,992.89
2019-06-20T10:57:29.599Z,992.87
2019-06-20T10:58:29.606Z,992.92
2019-06-20T10:59:29.762Z,992.94
2019-06-20T11:00:31.821Z,992.90
2019-06-20T11:01:29.545Z,992.92
2019-06-20T11:02:29.709Z,992.91
2019-06-20T11:03:29.714Z,992.93
2019-06-20T11:04:29.567Z,992.88
2019-06-20T11:05:29.587Z,992.87
2019-06-20T11:06:29.563Z,992.83
2019-06-20T11:07:29.499Z,992.82
2019-06-20T11:08:29.482Z,992.88
2019-06-20T11:09:29.571Z,992.86
2019-06-20T11:10:29.550Z,992.91
2019-06-20T11:11:29.474Z,992.87
2019-06-20T11:12:42.590Z,992.89
2019-06-20T11:13:30.522Z,992.88
2019-06-20T11:14:29.411Z,992.92
2019-06-20T11:15:29.410Z,992.94
2019-06-20T11:16:29.458Z,992.95
2019-06-20T11:17:29.412Z,992.98
2019-06-20T11:18:29.370Z,992.97
2019-06-20T11:19:29.353Z,992.99
2019-06-20T11:20:29.355Z,993.01
2019-06-20T11:21:29.328Z,992.97
2019-06-20T11:22:29.340Z,992.95
2019-06-20T11:23:29.359Z,992.97
2019-06-20T11:24:29.311Z,992.94
2019-06-20T11:25:29.650Z,992.90
2019-06-20T11:26:29.316Z,992.87
2019-06-20T11:27:29.268Z,992.85
2019-06-20T11:28:29.268Z,992.83
2019-06-20T11:29:29.349Z,992.81
2019-06-20T11:30:32.950Z,992.82
2019-06-20T11:31:30.255Z,992.76
2019-06-20T11:32:29.215Z,992.81
2019-06-20T11:33:29.380Z,992.79
2019-06-20T11:34:29.201Z,992.84
2019-06-20T11:35:29.233Z,992.78
2019-06-20T11:36:29.199Z,992.82
2019-06-20T11:37:29.205Z,992.77
2019-06-20T11:38:29.211Z,992.80
2019-06-20T11:39:29.144Z,992.81
2019-06-20T11:40:29.135Z,992.84
2019-06-20T11:41:29.171Z,992.86
2019-06-20T11:42:29.149Z,992.82
2019-06-20T11:43:29.097Z,992.88
2019-06-20T11:44:29.081Z,992.87
2019-06-20T11:45:29.076Z,992.86
2019-06-20T11:46:29.084Z,992.92
2019-06-20T11:47:29.111Z,992.88
2019-06-20T11:48:29.048Z,992.85
2019-06-20T11:49:29.033Z,992.84
2019-06-20T11:50:29.037Z,992.84
2019-06-20T11:51:29.010Z,992.83
2019-06-20T11:52:29.020Z,992.82
2019-06-20T11:53:29.022Z,992.81
2019-06-20T11:54:28.972Z,992.80
2019-06-20T11:55:29.014Z,992.76
2019-06-20T11:56:28.960Z,992.76
2019-06-20T11:57:28.943Z,992.78
2019-06-20T11:58:28.931Z,992.73
2019-06-20T11:59:28.956Z,992.68
2019-06-20T12:00:28.920Z,992.72
2019-06-20T12:01:32.902Z,992.69
2019-06-20T12:02:28.899Z,992.64
2019-06-20T12:03:28.875Z,992.63
2019-06-20T12:04:28.865Z,992.65
2019-06-20T12:05:28.890Z,992.63
2019-06-20T12:06:28.853Z,992.65
2019-06-20T12:07:28.898Z,992.64
2019-06-20T12:08:28.826Z,992.64
2019-06-20T12:09:28.815Z,992.67
2019-06-20T12:10:28.824Z,992.65
2019-06-20T12:11:28.825Z,992.68
2019-06-20T12:12:28.787Z,992.74
2019-06-20T12:13:28.795Z,992.74
2019-06-20T12:14:28.793Z,992.78
2019-06-20T12:15:28.761Z,992.75
2019-06-20T12:16:28.740Z,992.77
2019-06-20T12:17:28.771Z,992.75
2019-06-20T12:18:28.718Z,992.80
2019-06-20T12:19:28.772Z,992.80
2019-06-20T12:20:28.704Z,992.75
2019-06-20T12:21:28.710Z,992.77
2019-06-20T12:22:28.671Z,992.84
2019-06-20T12:23:28.719Z,992.84
2019-06-20T12:24:28.651Z,992.90
2019-06-20T12:25:28.640Z,992.91
2019-06-20T12:26:28.653Z,992.92
2019-06-20T12:27:28.613Z,992.92
2019-06-20T12:28:28.604Z,992.93